createdAt,value
2018-07-28T00:00:03.226Z,24.00
2018-07-28T00:01:06.983Z,24.10
2018-07-28T00:01:38.710Z,24.10
2018-07-28T00:02:10.437Z,24.10
2018-07-28T00:02:42.155Z,24.10
2018-07-28T00:03:13.874Z,24.10
2018-07-28T00:03:45.599Z,24.10
2018-07-28T00:04:17.321Z,24.10
2018-07-28T00:04:49.057Z,24.10
2018-07-28T00:05:20.957Z,24.10
2018-07-28T00:05:52.677Z,24.10
2018-07-28T00:06:24.400Z,24.10
2018-07-28T00:06:56.136Z,24.20
2018-07-28T00:07:27.882Z,24.20
2018-07-28T00:07:59.651Z,24.20
2018-07-28T00:08:31.391Z,24.20
2018-07-28T00:09:03.121Z,24.20
2018-07-28T00:09:34.842Z,24.20
2018-07-28T00:10:06.574Z,24.20
2018-07-28T00:10:38.296Z,24.20
2018-07-28T00:11:10.035Z,24.10
2018-07-28T00:11:41.748Z,24.20
2018-07-28T00:12:13.493Z,24.10
2018-07-28T00:12:45.931Z,24.10
2018-07-28T00:13:17.750Z,24.10
2018-07-28T00:13:49.469Z,24.10
2018-07-28T00:14:21.213Z,24.10
2018-07-28T00:14:52.928Z,24.10
2018-07-28T00:15:24.669Z,24.10
2018-07-28T00:15:56.417Z,24.10
2018-07-28T00:16:28.199Z,24.10
2018-07-28T00:16:59.964Z,24.20
2018-07-28T00:17:31.860Z,24.20
2018-07-28T00:18:03.611Z,24.20
2018-07-28T00:18:35.331Z,24.20
2018-07-28T00:19:07.059Z,24.20
2018-07-28T00:19:38.784Z,24.20
2018-07-28T00:20:10.506Z,24.20
2018-07-28T00:20:42.446Z,24.20
2018-07-28T00:21:14.178Z,24.20
2018-07-28T00:21:45.960Z,24.20
2018-07-28T00:22:17.711Z,24.20
2018-07-28T00:22:49.516Z,24.20
2018-07-28T00:23:21.230Z,24.20
2018-07-28T00:23:53.139Z,24.20
2018-07-28T00:24:25.583Z,24.20
2018-07-28T00:24:57.424Z,24.20
2018-07-28T00:25:29.141Z,24.20
2018-07-28T00:26:00.913Z,24.20
2018-07-28T00:26:32.633Z,24.20
2018-07-28T00:27:04.346Z,24.20
2018-07-28T00:27:36.110Z,24.20
2018-07-28T00:28:07.849Z,24.20
2018-07-28T00:28:39.568Z,24.20
2018-07-28T00:29:11.293Z,24.20
2018-07-28T00:30:15.042Z,24.20
2018-07-28T00:30:46.767Z,24.20
2018-07-28T00:31:18.602Z,24.20
2018-07-28T00:31:50.340Z,24.20
2018-07-28T00:32:22.063Z,24.30
2018-07-28T00:32:53.769Z,24.30
2018-07-28T00:33:25.550Z,24.30
2018-07-28T00:33:57.277Z,24.30
2018-07-28T00:34:29.014Z,24.30
2018-07-28T00:35:00.733Z,24.30
2018-07-28T00:35:32.561Z,24.30
2018-07-28T00:36:04.290Z,24.30
2018-07-28T00:36:36.033Z,24.40
2018-07-28T00:37:07.760Z,24.40
2018-07-28T00:37:39.485Z,24.40
2018-07-28T00:38:11.266Z,24.40
2018-07-28T00:38:42.988Z,24.40
2018-07-28T00:39:14.715Z,24.40
2018-07-28T00:39:46.530Z,24.40
2018-07-28T00:40:18.214Z,24.40
2018-07-28T00:40:50.097Z,24.40
2018-07-28T00:41:21.800Z,24.40
2018-07-28T00:41:53.630Z,24.40
2018-07-28T00:42:25.429Z,24.40
2018-07-28T00:42:57.172Z,24.40
2018-07-28T00:43:28.872Z,24.40
2018-07-28T00:44:00.686Z,24.30
2018-07-28T00:44:32.420Z,24.30
2018-07-28T00:45:04.129Z,24.30
2018-07-28T00:45:35.850Z,24.30
2018-07-28T00:46:07.585Z,24.30
2018-07-28T00:47:11.342Z,24.30
2018-07-28T00:47:43.097Z,24.30
2018-07-28T00:48:14.821Z,24.30
2018-07-28T00:48:46.545Z,24.30
2018-07-28T00:49:18.291Z,24.30
2018-07-28T00:49:50.018Z,24.30
2018-07-28T00:50:21.736Z,24.30
2018-07-28T00:51:25.532Z,24.40
2018-07-28T00:51:57.285Z,24.40
2018-07-28T00:52:29.010Z,24.40
2018-07-28T00:53:00.757Z,24.40
2018-07-28T00:53:32.497Z,24.40
2018-07-28T00:54:04.220Z,24.40
2018-07-28T00:54:36.007Z,24.40
2018-07-28T00:55:07.730Z,24.40
2018-07-28T00:55:39.484Z,24.40
2018-07-28T00:56:11.223Z,24.40
2018-07-28T00:56:42.948Z,24.40
2018-07-28T00:57:14.674Z,24.40
2018-07-28T00:57:46.405Z,24.40
2018-07-28T00:58:18.128Z,24.40
2018-07-28T00:58:50.176Z,24.40
2018-07-28T00:59:21.904Z,24.40
2018-07-28T00:59:53.646Z,24.40
2018-07-28T01:00:25.359Z,24.30
2018-07-28T01:00:57.086Z,24.40
2018-07-28T01:01:28.894Z,24.30
2018-07-28T01:02:01.229Z,24.30
2018-07-28T01:02:32.962Z,24.30
2018-07-28T01:03:04.711Z,24.20
2018-07-28T01:03:36.478Z,24.20
2018-07-28T01:04:08.196Z,24.20
2018-07-28T01:04:39.980Z,24.20
2018-07-28T01:05:11.702Z,24.20
2018-07-28T01:05:43.430Z,24.20
2018-07-28T01:06:15.161Z,24.20
2018-07-28T01:06:46.890Z,24.20
2018-07-28T01:07:18.625Z,24.20
2018-07-28T01:07:50.345Z,24.10
2018-07-28T01:08:22.079Z,24.10
2018-07-28T01:08:53.809Z,24.10
2018-07-28T01:09:25.557Z,24.10
2018-07-28T01:09:57.375Z,24.10
2018-07-28T01:10:29.057Z,24.10
2018-07-28T01:11:00.786Z,24.10
2018-07-28T01:11:32.517Z,24.10
2018-07-28T01:12:04.256Z,24.00
2018-07-28T01:12:35.992Z,24.00
2018-07-28T01:13:08.487Z,24.00
2018-07-28T01:13:40.781Z,24.00
2018-07-28T01:14:12.533Z,24.00
2018-07-28T01:14:44.276Z,24.00
2018-07-28T01:15:16.006Z,24.00
2018-07-28T01:15:47.739Z,24.10
2018-07-28T01:16:19.459Z,24.10
2018-07-28T01:16:51.186Z,24.00
2018-07-28T01:17:22.915Z,24.10
2018-07-28T01:17:54.636Z,24.10
2018-07-28T01:18:26.377Z,24.10
2018-07-28T01:18:58.468Z,24.00
2018-07-28T01:19:30.154Z,24.00
2018-07-28T01:20:01.881Z,24.00
2018-07-28T01:20:33.614Z,24.00
2018-07-28T01:21:05.348Z,24.00
2018-07-28T01:21:37.079Z,24.00
2018-07-28T01:22:08.844Z,24.00
2018-07-28T01:22:40.537Z,24.00
2018-07-28T01:23:44.290Z,24.00
2018-07-28T01:24:16.227Z,24.00
2018-07-28T01:24:47.961Z,24.00
2018-07-28T01:25:19.687Z,24.00
2018-07-28T01:25:51.409Z,24.00
2018-07-28T01:26:23.140Z,24.00
2018-07-28T01:26:54.878Z,24.00
2018-07-28T01:27:26.594Z,24.10
2018-07-28T01:27:58.316Z,24.10
2018-07-28T01:28:30.042Z,24.10
2018-07-28T01:29:01.760Z,24.10
2018-07-28T01:29:33.485Z,24.10
2018-07-28T01:30:05.216Z,24.10
2018-07-28T01:30:36.938Z,24.20
2018-07-28T01:31:08.671Z,24.20
2018-07-28T01:31:40.406Z,24.20
2018-07-28T01:32:12.128Z,24.20
2018-07-28T01:32:43.849Z,24.20
2018-07-28T01:33:15.586Z,24.20
2018-07-28T01:33:47.311Z,24.20
2018-07-28T01:34:19.039Z,24.20
2018-07-28T01:34:50.772Z,24.20
2018-07-28T01:35:22.496Z,24.20
2018-07-28T01:35:54.257Z,24.20
2018-07-28T01:36:25.979Z,24.30
2018-07-28T01:36:57.705Z,24.30
2018-07-28T01:37:29.432Z,24.30
2018-07-28T01:38:01.178Z,24.30
2018-07-28T01:38:33.218Z,24.30
2018-07-28T01:39:05.274Z,24.30
2018-07-28T01:39:37.343Z,24.40
2018-07-28T01:40:09.034Z,24.40
2018-07-28T01:40:40.752Z,24.40
2018-07-28T01:41:12.477Z,24.40
2018-07-28T01:41:44.202Z,24.40
2018-07-28T01:42:15.930Z,24.40
2018-07-28T01:42:47.659Z,24.40
2018-07-28T01:43:19.386Z,24.40
2018-07-28T01:43:51.107Z,24.40
2018-07-28T01:44:22.822Z,24.40
2018-07-28T01:44:54.554Z,24.40
2018-07-28T01:45:26.278Z,24.40
2018-07-28T01:45:58.054Z,24.40
2018-07-28T01:46:29.821Z,24.40
2018-07-28T01:47:01.546Z,24.40
2018-07-28T01:47:33.280Z,24.40
2018-07-28T01:48:05.012Z,24.40
2018-07-28T01:48:36.729Z,24.50
2018-07-28T01:49:08.451Z,24.40
2018-07-28T01:49:40.176Z,24.40
2018-07-28T01:50:11.897Z,24.40
2018-07-28T01:50:43.641Z,24.40
2018-07-28T01:51:15.341Z,24.40
2018-07-28T01:51:47.080Z,24.40
2018-07-28T01:52:18.821Z,24.40
2018-07-28T01:52:50.591Z,24.40
2018-07-28T01:53:22.304Z,24.40
2018-07-28T01:53:54.039Z,24.40
2018-07-28T01:54:25.756Z,24.40
2018-07-28T01:54:57.509Z,24.40
2018-07-28T01:55:29.238Z,24.40
2018-07-28T01:56:00.952Z,24.40
2018-07-28T01:56:32.679Z,24.30
2018-07-28T01:57:04.400Z,24.30
2018-07-28T01:57:36.132Z,24.30
2018-07-28T01:58:07.858Z,24.30
2018-07-28T01:58:39.610Z,24.30
2018-07-28T01:59:11.404Z,24.30
2018-07-28T01:59:43.170Z,24.30
2018-07-28T02:00:15.063Z,24.20
2018-07-28T02:00:46.785Z,24.20
2018-07-28T02:01:18.518Z,24.10
2018-07-28T02:01:50.246Z,24.00
2018-07-28T02:02:21.972Z,24.00
2018-07-28T02:02:53.702Z,24.00
2018-07-28T02:03:25.425Z,24.00
2018-07-28T02:03:57.150Z,24.00
2018-07-28T02:04:28.898Z,24.00
2018-07-28T02:05:00.633Z,24.10
2018-07-28T02:05:32.558Z,24.10
2018-07-28T02:06:36.306Z,24.20
2018-07-28T02:07:08.045Z,24.20
2018-07-28T02:07:39.788Z,24.20
2018-07-28T02:08:11.526Z,24.20
2018-07-28T02:08:43.242Z,24.20
2018-07-28T02:09:14.983Z,24.30
2018-07-28T02:09:46.918Z,24.30
2018-07-28T02:10:18.636Z,24.30
2018-07-28T02:10:50.357Z,24.30
2018-07-28T02:11:22.095Z,24.30
2018-07-28T02:11:53.913Z,24.20
2018-07-28T02:12:25.650Z,24.20
2018-07-28T02:12:57.380Z,24.20
2018-07-28T02:13:29.109Z,24.20
2018-07-28T02:14:01.126Z,24.10
2018-07-28T02:14:32.858Z,24.10
2018-07-28T02:15:04.590Z,24.10
2018-07-28T02:16:08.291Z,24.20
2018-07-28T02:16:40.026Z,24.20
2018-07-28T02:17:11.755Z,24.10
2018-07-28T02:17:43.483Z,24.10
2018-07-28T02:18:15.205Z,24.10
2018-07-28T02:18:46.932Z,24.10
2018-07-28T02:19:18.708Z,24.20
2018-07-28T02:19:50.420Z,24.20
2018-07-28T02:20:22.149Z,24.20
2018-07-28T02:20:54.102Z,24.30
2018-07-28T02:21:26.001Z,24.30
2018-07-28T02:21:57.731Z,24.30
2018-07-28T02:22:29.449Z,24.30
2018-07-28T02:23:01.197Z,24.30
2018-07-28T02:23:32.921Z,24.30
2018-07-28T02:24:04.642Z,24.30
2018-07-28T02:24:36.373Z,24.30
2018-07-28T02:25:08.110Z,24.30
2018-07-28T02:25:39.832Z,24.30
2018-07-28T02:26:11.553Z,24.40
2018-07-28T02:26:43.282Z,24.30
2018-07-28T02:27:15.005Z,24.30
2018-07-28T02:27:46.742Z,24.30
2018-07-28T02:28:18.468Z,24.30
2018-07-28T02:28:50.489Z,24.30
2018-07-28T02:29:22.410Z,24.30
2018-07-28T02:29:54.136Z,24.30
2018-07-28T02:30:25.869Z,24.30
2018-07-28T02:30:57.589Z,24.30
2018-07-28T02:31:29.322Z,24.30
2018-07-28T02:32:01.035Z,24.30
2018-07-28T02:32:32.757Z,24.30
2018-07-28T02:33:04.493Z,24.30
2018-07-28T02:33:36.230Z,24.30
2018-07-28T02:34:07.973Z,24.30
2018-07-28T02:34:39.698Z,24.30
2018-07-28T02:35:11.418Z,24.30
2018-07-28T02:35:43.158Z,24.30
2018-07-28T02:36:14.882Z,24.30
2018-07-28T02:36:46.628Z,24.30
2018-07-28T02:37:18.341Z,24.30
2018-07-28T02:37:50.092Z,24.30
2018-07-28T02:38:21.841Z,24.30
2018-07-28T02:38:53.555Z,24.20
2018-07-28T02:39:25.351Z,24.20
2018-07-28T02:39:57.265Z,24.20
2018-07-28T02:40:28.993Z,24.10
2018-07-28T02:41:00.718Z,24.10
2018-07-28T02:41:32.449Z,24.20
2018-07-28T02:42:04.224Z,24.20
2018-07-28T02:42:35.960Z,24.20
2018-07-28T02:43:07.681Z,24.20
2018-07-28T02:43:39.422Z,24.20
2018-07-28T02:44:11.164Z,24.10
2018-07-28T02:44:42.914Z,24.10
2018-07-28T02:45:14.640Z,24.10
2018-07-28T02:45:46.385Z,24.10
2018-07-28T02:46:18.134Z,24.10
2018-07-28T02:46:49.870Z,24.10
2018-07-28T02:47:21.598Z,24.10
2018-07-28T02:47:53.325Z,24.10
2018-07-28T02:48:25.037Z,24.10
2018-07-28T02:48:56.765Z,24.10
2018-07-28T02:49:28.556Z,24.20
2018-07-28T02:50:00.300Z,24.20
2018-07-28T02:50:32.033Z,24.10
2018-07-28T02:51:03.763Z,24.10
2018-07-28T02:51:35.478Z,24.20
2018-07-28T02:52:07.238Z,24.20
2018-07-28T02:52:38.972Z,24.20
2018-07-28T02:53:10.770Z,24.20
2018-07-28T02:53:42.509Z,24.10
2018-07-28T02:54:14.231Z,24.10
2018-07-28T02:54:45.965Z,24.20
2018-07-28T02:55:17.687Z,24.20
2018-07-28T02:55:49.415Z,24.20
2018-07-28T02:56:21.144Z,24.20
2018-07-28T02:56:52.885Z,24.20
2018-07-28T02:57:24.622Z,24.20
2018-07-28T02:57:56.347Z,24.20
2018-07-28T02:58:28.069Z,24.20
2018-07-28T02:58:59.811Z,24.20
2018-07-28T02:59:31.532Z,24.20
2018-07-28T03:00:03.269Z,24.30
2018-07-28T03:00:34.994Z,24.30
2018-07-28T03:01:06.833Z,24.30
2018-07-28T03:01:38.569Z,24.20
2018-07-28T03:02:10.281Z,24.20
2018-07-28T03:02:42.013Z,24.30
2018-07-28T03:03:13.754Z,24.20
2018-07-28T03:03:45.472Z,24.20
2018-07-28T03:04:17.217Z,24.20
2018-07-28T03:04:48.943Z,24.20
2018-07-28T03:05:20.691Z,24.20
2018-07-28T03:05:52.461Z,24.20
2018-07-28T03:06:24.173Z,24.10
2018-07-28T03:06:55.915Z,24.10
2018-07-28T03:07:27.646Z,24.20
2018-07-28T03:07:59.374Z,24.20
2018-07-28T03:08:31.105Z,24.20
2018-07-28T03:09:02.830Z,24.20
2018-07-28T03:09:34.566Z,24.20
2018-07-28T03:10:06.297Z,24.20
2018-07-28T03:10:38.035Z,24.10
2018-07-28T03:11:09.759Z,24.10
2018-07-28T03:11:41.510Z,24.10
2018-07-28T03:12:13.230Z,24.00
2018-07-28T03:12:44.981Z,24.00
2018-07-28T03:13:16.710Z,24.00
2018-07-28T03:13:48.450Z,24.00
2018-07-28T03:14:20.174Z,24.00
2018-07-28T03:14:51.908Z,24.00
2018-07-28T03:15:23.641Z,24.00
2018-07-28T03:15:55.372Z,24.00
2018-07-28T03:16:27.102Z,24.00
2018-07-28T03:16:58.836Z,24.00
2018-07-28T03:17:30.557Z,24.00
2018-07-28T03:18:02.288Z,24.00
2018-07-28T03:18:34.030Z,24.00
2018-07-28T03:19:05.759Z,24.10
2018-07-28T03:19:37.477Z,24.10
2018-07-28T03:20:09.212Z,24.00
2018-07-28T03:20:40.935Z,24.00
2018-07-28T03:21:12.664Z,24.00
2018-07-28T03:21:44.390Z,24.00
2018-07-28T03:22:16.113Z,24.00
2018-07-28T03:22:47.844Z,24.00
2018-07-28T03:23:19.571Z,24.00
2018-07-28T03:23:51.295Z,24.00
2018-07-28T03:24:23.030Z,24.00
2018-07-28T03:24:54.742Z,24.00
2018-07-28T03:25:26.479Z,24.00
2018-07-28T03:25:58.207Z,23.90
2018-07-28T03:26:29.950Z,23.90
2018-07-28T03:27:01.684Z,23.90
2018-07-28T03:27:33.403Z,23.90
2018-07-28T03:28:05.127Z,23.90
2018-07-28T03:28:36.884Z,23.90
2018-07-28T03:29:08.603Z,23.90
2018-07-28T03:29:40.411Z,23.90
2018-07-28T03:30:12.134Z,23.90
2018-07-28T03:30:43.865Z,23.90
2018-07-28T03:31:15.590Z,23.80
2018-07-28T03:31:47.314Z,23.80
2018-07-28T03:32:19.047Z,23.80
2018-07-28T03:32:50.782Z,23.70
2018-07-28T03:33:22.504Z,23.70
2018-07-28T03:33:54.232Z,23.70
2018-07-28T03:34:25.953Z,23.70
2018-07-28T03:34:57.677Z,23.70
2018-07-28T03:35:29.401Z,23.70
2018-07-28T03:36:01.229Z,23.70
2018-07-28T03:36:32.955Z,23.60
2018-07-28T03:37:04.677Z,23.70
2018-07-28T03:37:36.460Z,23.60
2018-07-28T03:38:08.195Z,23.60
2018-07-28T03:38:39.906Z,23.60
2018-07-28T03:39:11.639Z,23.60
2018-07-28T03:39:43.345Z,23.60
2018-07-28T03:40:15.079Z,23.60
2018-07-28T03:40:46.822Z,23.60
2018-07-28T03:41:18.723Z,23.60
2018-07-28T03:41:50.442Z,23.60
2018-07-28T03:42:22.185Z,23.60
2018-07-28T03:42:53.917Z,23.60
2018-07-28T03:43:25.658Z,23.60
2018-07-28T03:43:57.617Z,23.60
2018-07-28T03:44:29.350Z,23.50
2018-07-28T03:45:01.077Z,23.50
2018-07-28T03:45:32.806Z,23.50
2018-07-28T03:46:04.545Z,23.50
2018-07-28T03:46:36.261Z,23.50
2018-07-28T03:47:08.118Z,23.50
2018-07-28T03:47:39.845Z,23.50
2018-07-28T03:48:11.566Z,23.50
2018-07-28T03:48:43.298Z,23.50
2018-07-28T03:49:15.054Z,23.50
2018-07-28T03:49:46.966Z,23.40
2018-07-28T03:50:18.698Z,23.40
2018-07-28T03:50:50.413Z,23.40
2018-07-28T03:51:22.162Z,23.40
2018-07-28T03:51:53.892Z,23.40
2018-07-28T03:52:25.635Z,23.40
2018-07-28T03:52:57.358Z,23.40
2018-07-28T03:53:29.086Z,23.40
2018-07-28T03:54:00.842Z,23.40
2018-07-28T03:54:32.556Z,23.40
2018-07-28T03:55:04.281Z,23.50
2018-07-28T03:55:36.006Z,23.50
2018-07-28T03:56:07.724Z,23.50
2018-07-28T03:56:39.449Z,23.50
2018-07-28T03:57:11.174Z,23.50
2018-07-28T03:57:42.923Z,23.50
2018-07-28T03:58:14.648Z,23.60
2018-07-28T03:58:46.378Z,23.60
2018-07-28T03:59:18.140Z,23.50
2018-07-28T03:59:49.986Z,23.60
2018-07-28T04:00:21.700Z,23.60
2018-07-28T04:00:53.445Z,23.60
2018-07-28T04:01:25.185Z,23.70
2018-07-28T04:01:56.903Z,23.70
2018-07-28T04:02:28.644Z,23.70
2018-07-28T04:03:00.394Z,23.70
2018-07-28T04:03:32.109Z,23.70
2018-07-28T04:04:03.853Z,23.80
2018-07-28T04:04:35.760Z,23.80
2018-07-28T04:05:07.500Z,23.80
2018-07-28T04:05:39.226Z,23.80
2018-07-28T04:06:10.950Z,23.80
2018-07-28T04:06:42.705Z,23.80
2018-07-28T04:07:14.438Z,23.90
2018-07-28T04:07:46.174Z,23.90
2018-07-28T04:08:17.888Z,23.90
2018-07-28T04:08:49.608Z,23.90
2018-07-28T04:09:21.341Z,23.90
2018-07-28T04:09:53.240Z,23.90
2018-07-28T04:10:24.966Z,23.90
2018-07-28T04:10:56.685Z,23.90
2018-07-28T04:11:28.418Z,23.90
2018-07-28T04:12:00.174Z,23.90
2018-07-28T04:12:31.911Z,23.90
2018-07-28T04:13:03.646Z,23.90
2018-07-28T04:13:35.385Z,23.90
2018-07-28T04:14:07.115Z,23.80
2018-07-28T04:14:38.835Z,23.80
2018-07-28T04:15:10.559Z,23.80
2018-07-28T04:15:42.284Z,23.90
2018-07-28T04:16:14.015Z,23.80
2018-07-28T04:16:45.747Z,23.80
2018-07-28T04:17:17.802Z,23.80
2018-07-28T04:17:49.537Z,23.80
2018-07-28T04:18:21.250Z,23.80
2018-07-28T04:18:52.974Z,23.80
2018-07-28T04:19:24.697Z,23.90
2018-07-28T04:19:56.662Z,23.80
2018-07-28T04:20:28.390Z,23.80
2018-07-28T04:21:00.097Z,23.90
2018-07-28T04:21:31.827Z,23.90
2018-07-28T04:22:03.569Z,23.90
2018-07-28T04:22:35.305Z,23.90
2018-07-28T04:23:07.030Z,23.90
2018-07-28T04:23:38.797Z,23.90
2018-07-28T04:24:10.520Z,23.90
2018-07-28T04:24:42.249Z,23.90
2018-07-28T04:25:14.012Z,23.90
2018-07-28T04:25:45.700Z,23.90
2018-07-28T04:26:17.448Z,23.90
2018-07-28T04:26:49.163Z,23.90
2018-07-28T04:27:20.952Z,23.90
2018-07-28T04:27:52.681Z,23.90
2018-07-28T04:28:56.660Z,23.90
2018-07-28T04:29:28.400Z,23.90
2018-07-28T04:30:00.327Z,23.90
2018-07-28T04:30:32.045Z,23.90
2018-07-28T04:31:03.987Z,23.90
2018-07-28T04:31:35.711Z,23.90
2018-07-28T04:32:07.441Z,23.90
2018-07-28T04:32:39.210Z,24.00
2018-07-28T04:33:42.999Z,24.00
2018-07-28T04:34:14.724Z,24.00
2018-07-28T04:34:46.451Z,24.00
2018-07-28T04:35:18.177Z,24.00
2018-07-28T04:35:49.902Z,23.90
2018-07-28T04:36:21.633Z,24.00
2018-07-28T04:36:53.365Z,23.90
2018-07-28T04:37:25.121Z,23.90
2018-07-28T04:37:56.845Z,23.90
2018-07-28T04:38:28.576Z,23.90
2018-07-28T04:39:00.305Z,23.90
2018-07-28T04:39:32.026Z,23.90
2018-07-28T04:40:03.745Z,23.90
2018-07-28T04:40:35.486Z,23.90
2018-07-28T04:41:07.237Z,23.90
2018-07-28T04:41:38.969Z,24.00
2018-07-28T04:42:10.710Z,24.00
2018-07-28T04:42:42.436Z,23.90
2018-07-28T04:43:14.161Z,23.90
2018-07-28T04:43:45.884Z,23.90
2018-07-28T04:44:17.600Z,24.00
2018-07-28T04:44:49.529Z,24.00
2018-07-28T04:45:21.301Z,24.00
2018-07-28T04:45:53.030Z,24.00
2018-07-28T04:46:24.755Z,24.00
2018-07-28T04:46:56.476Z,24.00
2018-07-28T04:47:28.220Z,24.00
2018-07-28T04:47:59.970Z,24.00
2018-07-28T04:48:31.696Z,24.00
2018-07-28T04:49:03.439Z,24.00
2018-07-28T04:49:35.141Z,24.00
2018-07-28T04:50:06.964Z,24.00
2018-07-28T04:50:38.677Z,24.00
2018-07-28T04:51:10.397Z,24.00
2018-07-28T04:51:42.131Z,24.00
2018-07-28T04:52:13.850Z,24.00
2018-07-28T04:52:45.578Z,24.00
2018-07-28T04:53:17.319Z,24.00
2018-07-28T04:53:49.044Z,24.00
2018-07-28T04:54:20.767Z,23.90
2018-07-28T04:54:52.490Z,23.90
2018-07-28T04:55:24.248Z,23.90
2018-07-28T04:55:55.968Z,24.00
2018-07-28T04:56:27.701Z,23.90
2018-07-28T04:56:59.436Z,23.90
2018-07-28T04:57:31.168Z,23.90
2018-07-28T04:58:02.893Z,23.90
2018-07-28T04:58:34.618Z,23.90
2018-07-28T04:59:06.341Z,23.90
2018-07-28T04:59:38.074Z,23.90
2018-07-28T05:00:09.805Z,23.90
2018-07-28T05:00:41.561Z,23.90
2018-07-28T05:01:13.302Z,23.90
2018-07-28T05:01:45.039Z,23.90
2018-07-28T05:02:48.805Z,23.80
2018-07-28T05:03:20.541Z,23.90
2018-07-28T05:03:52.266Z,23.90
2018-07-28T05:04:23.988Z,23.90
2018-07-28T05:04:55.721Z,23.90
2018-07-28T05:05:27.454Z,23.90
2018-07-28T05:05:59.196Z,23.90
2018-07-28T05:06:30.915Z,23.90
2018-07-28T05:07:02.638Z,23.90
2018-07-28T05:07:34.480Z,23.90
2018-07-28T05:08:06.297Z,23.90
2018-07-28T05:08:38.029Z,23.90
2018-07-28T05:09:09.763Z,23.90
2018-07-28T05:09:41.478Z,23.90
2018-07-28T05:10:13.209Z,23.90
2018-07-28T05:10:44.946Z,23.90
2018-07-28T05:11:16.656Z,23.90
2018-07-28T05:11:48.381Z,23.90
2018-07-28T05:12:20.110Z,23.90
2018-07-28T05:12:51.849Z,23.90
2018-07-28T05:13:23.582Z,24.00
2018-07-28T05:13:55.300Z,23.90
2018-07-28T05:14:27.029Z,23.90
2018-07-28T05:14:58.742Z,23.90
2018-07-28T05:15:30.457Z,23.90
2018-07-28T05:16:02.273Z,24.00
2018-07-28T05:16:34.166Z,24.00
2018-07-28T05:17:05.947Z,23.90
2018-07-28T05:17:37.673Z,23.90
2018-07-28T05:18:09.398Z,23.90
2018-07-28T05:18:41.153Z,23.90
2018-07-28T05:19:12.870Z,23.90
2018-07-28T05:19:44.602Z,23.90
2018-07-28T05:20:16.313Z,23.90
2018-07-28T05:20:48.037Z,23.90
2018-07-28T05:21:19.758Z,23.80
2018-07-28T05:21:51.473Z,23.80
2018-07-28T05:22:23.196Z,23.80
2018-07-28T05:22:54.921Z,23.90
2018-07-28T05:23:26.641Z,23.90
2018-07-28T05:23:58.377Z,23.90
2018-07-28T05:24:30.105Z,23.90
2018-07-28T05:25:01.831Z,23.80
2018-07-28T05:25:33.643Z,23.80
2018-07-28T05:26:05.394Z,23.90
2018-07-28T05:26:37.139Z,23.90
2018-07-28T05:27:08.872Z,23.90
2018-07-28T05:27:40.602Z,23.90
2018-07-28T05:28:12.321Z,23.90
2018-07-28T05:28:44.045Z,23.90
2018-07-28T05:29:15.770Z,23.90
2018-07-28T05:29:47.494Z,23.90
2018-07-28T05:30:19.237Z,23.80
2018-07-28T05:31:22.971Z,23.80
2018-07-28T05:31:54.702Z,23.90
2018-07-28T05:32:26.442Z,23.80
2018-07-28T05:32:58.195Z,23.80
2018-07-28T05:33:29.952Z,23.80
2018-07-28T05:34:01.685Z,23.80
2018-07-28T05:34:33.401Z,23.80
2018-07-28T05:35:05.130Z,23.90
2018-07-28T05:35:36.845Z,23.90
2018-07-28T05:36:08.597Z,23.80
2018-07-28T05:36:40.322Z,23.90
2018-07-28T05:37:12.109Z,23.80
2018-07-28T05:37:43.973Z,23.90
2018-07-28T05:38:15.692Z,23.90
2018-07-28T05:38:47.421Z,23.90
2018-07-28T05:39:19.148Z,23.90
2018-07-28T05:39:50.879Z,23.90
2018-07-28T05:40:22.593Z,23.90
2018-07-28T05:40:54.316Z,23.90
2018-07-28T05:41:26.050Z,23.90
2018-07-28T05:41:57.766Z,23.90
2018-07-28T05:42:29.523Z,23.90
2018-07-28T05:43:01.231Z,23.90
2018-07-28T05:43:32.946Z,23.90
2018-07-28T05:44:04.719Z,23.90
2018-07-28T05:44:36.483Z,23.90
2018-07-28T05:45:08.216Z,23.90
2018-07-28T05:45:39.931Z,23.90
2018-07-28T05:46:11.682Z,23.90
2018-07-28T05:46:43.410Z,23.90
2018-07-28T05:47:15.151Z,23.80
2018-07-28T05:47:46.896Z,23.80
2018-07-28T05:48:18.617Z,23.80
2018-07-28T05:48:50.350Z,23.80
2018-07-28T05:49:22.235Z,23.80
2018-07-28T05:49:53.977Z,23.80
2018-07-28T05:50:25.705Z,23.80
2018-07-28T05:50:57.429Z,23.80
2018-07-28T05:51:29.182Z,23.80
2018-07-28T05:52:00.906Z,23.80
2018-07-28T05:52:32.625Z,23.80
2018-07-28T05:53:04.354Z,23.80
2018-07-28T05:53:36.084Z,23.80
2018-07-28T05:54:07.819Z,23.70
2018-07-28T05:54:39.541Z,23.80
2018-07-28T05:55:11.277Z,23.80
2018-07-28T05:55:43.142Z,23.80
2018-07-28T05:56:15.055Z,23.80
2018-07-28T05:56:46.777Z,23.80
2018-07-28T05:57:18.512Z,23.80
2018-07-28T05:57:50.236Z,23.80
2018-07-28T05:58:21.957Z,23.80
2018-07-28T05:58:53.702Z,23.80
2018-07-28T05:59:25.425Z,23.80
2018-07-28T05:59:57.170Z,23.80
2018-07-28T06:00:28.930Z,23.80
2018-07-28T06:01:00.729Z,23.80
2018-07-28T06:02:04.492Z,23.80
2018-07-28T06:02:36.233Z,23.80
2018-07-28T06:03:07.967Z,23.80
2018-07-28T06:03:39.709Z,23.80
2018-07-28T06:04:11.449Z,23.80
2018-07-28T06:04:43.204Z,23.80
2018-07-28T06:05:15.280Z,23.80
2018-07-28T06:05:47.202Z,23.80
2018-07-28T06:06:18.973Z,23.80
2018-07-28T06:06:50.710Z,23.80
2018-07-28T06:07:22.452Z,23.80
2018-07-28T06:07:54.177Z,23.80
2018-07-28T06:08:25.898Z,23.80
2018-07-28T06:08:57.620Z,23.80
2018-07-28T06:09:29.345Z,23.80
2018-07-28T06:10:01.070Z,23.80
2018-07-28T06:10:32.791Z,23.80
2018-07-28T06:11:04.518Z,23.80
2018-07-28T06:11:36.262Z,23.80
2018-07-28T06:12:07.994Z,23.80
2018-07-28T06:12:40.014Z,23.80
2018-07-28T06:13:11.741Z,23.80
2018-07-28T06:13:43.483Z,23.80
2018-07-28T06:14:15.218Z,23.80
2018-07-28T06:14:47.154Z,23.80
2018-07-28T06:15:18.976Z,23.80
2018-07-28T06:15:50.678Z,23.80
2018-07-28T06:16:22.397Z,23.90
2018-07-28T06:16:54.140Z,23.90
2018-07-28T06:17:25.859Z,23.90
2018-07-28T06:17:57.591Z,23.90
2018-07-28T06:18:29.298Z,23.90
2018-07-28T06:19:01.027Z,23.90
2018-07-28T06:19:32.771Z,23.90
2018-07-28T06:20:04.499Z,24.00
2018-07-28T06:20:36.251Z,24.00
2018-07-28T06:21:07.974Z,24.00
2018-07-28T06:21:39.982Z,24.00
2018-07-28T06:22:12.432Z,24.00
2018-07-28T06:22:44.296Z,24.00
2018-07-28T06:23:16.063Z,24.00
2018-07-28T06:23:47.782Z,24.00
2018-07-28T06:24:19.512Z,24.00
2018-07-28T06:24:51.241Z,24.00
2018-07-28T06:25:22.979Z,24.00
2018-07-28T06:25:54.737Z,24.00
2018-07-28T06:26:26.649Z,24.00
2018-07-28T06:26:58.425Z,24.10
2018-07-28T06:27:30.759Z,24.10
2018-07-28T06:28:02.706Z,24.10
2018-07-28T06:28:34.470Z,24.10
2018-07-28T06:29:06.227Z,24.10
2018-07-28T06:29:37.946Z,24.10
2018-07-28T06:30:09.668Z,24.10
2018-07-28T06:30:41.409Z,24.10
2018-07-28T06:31:13.231Z,24.10
2018-07-28T06:32:17.213Z,24.10
2018-07-28T06:32:48.980Z,24.10
2018-07-28T06:33:20.917Z,24.10
2018-07-28T06:33:52.631Z,24.10
2018-07-28T06:34:24.361Z,24.10
2018-07-28T06:34:56.113Z,24.10
2018-07-28T06:35:27.854Z,24.10
2018-07-28T06:35:59.623Z,24.10
2018-07-28T06:36:31.409Z,24.10
2018-07-28T06:37:03.314Z,24.10
2018-07-28T06:37:35.064Z,24.00
2018-07-28T06:38:06.774Z,24.00
2018-07-28T06:38:38.508Z,24.00
2018-07-28T06:39:10.277Z,24.00
2018-07-28T06:39:41.998Z,24.00
2018-07-28T06:40:13.800Z,24.00
2018-07-28T06:40:45.528Z,24.00
2018-07-28T06:41:17.262Z,23.90
2018-07-28T06:41:48.971Z,24.00
2018-07-28T06:42:20.698Z,24.00
2018-07-28T06:42:52.663Z,24.00
2018-07-28T06:43:24.369Z,24.00
2018-07-28T06:43:56.104Z,24.00
2018-07-28T06:44:27.843Z,24.00
2018-07-28T06:44:59.557Z,24.00
2018-07-28T06:45:31.286Z,24.00
2018-07-28T06:46:03.015Z,24.00
2018-07-28T06:46:34.742Z,24.10
2018-07-28T06:47:38.533Z,24.10
2018-07-28T06:48:10.274Z,24.10
2018-07-28T06:48:42.021Z,24.10
2018-07-28T06:49:13.750Z,24.10
2018-07-28T06:49:45.477Z,24.10
2018-07-28T06:50:17.204Z,24.10
2018-07-28T06:50:48.946Z,24.10
2018-07-28T06:51:20.672Z,24.10
2018-07-28T06:51:52.415Z,24.10
2018-07-28T06:52:24.157Z,24.10
2018-07-28T06:52:55.872Z,24.10
2018-07-28T06:53:27.620Z,24.10
2018-07-28T06:53:59.466Z,24.10
2018-07-28T06:54:31.197Z,24.10
2018-07-28T06:55:34.932Z,24.20
2018-07-28T06:56:06.660Z,24.20
2018-07-28T06:56:38.386Z,24.20